Time;durP1;ratioP1;P1;durP2;ratioP2;P2;SDS_P1;SDS_P2;PMS_P1;PMS_P2;Temp;Humidity;BMP_temperature;BMP_pressure;BME280_temperature;BME280_humidity;BME280_pressure;Samples;Min_cycle;Max_cycle;Signal;HPM_P1;HPM_P2
2022/09/11 00:00:50;;;;;;;1.10;1.00;;;14.80;97.30;;;;;;5021027;28;20430;-90
2022/09/11 00:03:17;;;;;;;1.50;1.40;;;14.80;97.30;;;;;;5016132;28;20197;-91
2022/09/11 00:05:43;;;;;;;2.00;1.80;;;14.80;97.30;;;;;;5021395;28;20415;-90
2022/09/11 00:08:10;;;;;;;4.07;1.90;;;14.80;97.30;;;;;;5029169;28;20424;-89
2022/09/11 00:10:39;;;;;;;1.37;1.10;;;14.80;97.30;;;;;;5018546;28;21064;-89
2022/09/11 00:13:06;;;;;;;1.87;1.77;;;14.80;97.30;;;;;;5028781;28;20463;-90
2022/09/11 00:15:39;;;;;;;1.00;0.97;;;14.80;97.30;;;;;;5031719;28;20430;-89
2022/09/11 00:18:06;;;;;;;2.43;2.23;;;14.80;97.30;;;;;;5032573;28;20423;-89
2022/09/11 00:20:32;;;;;;;2.60;1.70;;;14.80;97.30;;;;;;5031322;28;20415;-90
2022/09/11 00:23:00;;;;;;;2.10;1.60;;;14.80;97.30;;;;;;5031884;28;20450;-90
2022/09/11 00:25:26;;;;;;;4.50;2.07;;;14.80;97.30;;;;;;5031592;28;20458;-90
2022/09/11 00:27:52;;;;;;;2.13;1.80;;;14.80;97.30;;;;;;5031718;28;20550;-90
2022/09/11 00:30:20;;;;;;;13.43;2.67;;;14.80;97.30;;;;;;5039484;28;20415;-89
2022/09/11 00:32:45;;;;;;;1.90;1.80;;;14.90;97.30;;;;;;5012819;28;20224;-90
2022/09/11 00:35:11;;;;;;;2.30;2.10;;;14.90;97.30;;;;;;5024876;28;20427;-90
2022/09/11 00:37:37;;;;;;;1.73;1.63;;;14.90;97.30;;;;;;5047519;28;20748;-90
2022/09/11 00:40:03;;;;;;;1.87;1.53;;;14.90;97.30;;;;;;5019503;28;20552;-90
2022/09/11 00:42:29;;;;;;;2.40;2.23;;;15.00;97.30;;;;;;5029741;28;20200;-90
2022/09/11 00:45:01;;;;;;;2.67;1.97;;;15.00;97.30;;;;;;5039199;28;20188;-88
2022/09/11 00:47:28;;;;;;;3.67;2.27;;;15.00;97.30;;;;;;5031030;28;20507;-90
2022/09/11 00:49:58;;;;;;;2.63;1.60;;;15.00;97.30;;;;;;5031052;28;20514;-89
2022/09/11 00:52:31;;;;;;;4.07;2.10;;;15.00;97.30;;;;;;5031466;28;20908;-90
2022/09/11 00:55:03;;;;;;;3.77;2.47;;;15.00;97.30;;;;;;5031095;28;20419;-89
2022/09/11 00:57:33;;;;;;;1.37;1.17;;;15.00;97.30;;;;;;5023798;28;20459;-89
2022/09/11 01:00:01;;;;;;;2.90;2.20;;;15.00;97.30;;;;;;5040233;28;20434;-89
2022/09/11 01:02:30;;;;;;;4.17;1.90;;;15.00;97.30;;;;;;5047251;28;20441;-89
2022/09/11 01:04:58;;;;;;;2.63;1.33;;;15.00;97.30;;;;;;5056542;28;20495;-89
2022/09/11 01:07:33;;;;;;;1.17;1.07;;;15.00;97.30;;;;;;5025446;28;20515;-90
2022/09/11 01:09:58;;;;;;;1.33;1.20;;;15.00;97.30;;;;;;5031355;28;20425;-88
2022/09/11 01:12:38;;;;;;;1.50;1.40;;;14.90;97.30;;;;;;5048131;28;20439;-89
2022/09/11 01:15:13;;;;;;;2.47;1.83;;;14.90;97.30;;;;;;5031534;28;20263;-90
2022/09/11 01:18:00;;;;;;;3.13;1.60;;;14.90;97.30;;;;;;5031168;28;20465;-89
2022/09/11 01:20:48;;;;;;;1.47;1.37;;;14.90;97.30;;;;;;5031250;28;20426;-90
2022/09/11 01:23:36;;;;;;;1.30;1.20;;;14.90;97.30;;;;;;5031559;28;20435;-90
2022/09/11 01:26:11;;;;;;;1.67;1.50;;;14.80;97.30;;;;;;5030752;28;20484;-89
2022/09/11 01:28:51;;;;;;;1.33;1.23;;;14.80;97.30;;;;;;5030742;28;20415;-90
2022/09/11 01:31:20;;;;;;;3.53;1.67;;;14.80;97.30;;;;;;5029916;28;20437;-89
2022/09/11 01:34:04;;;;;;;1.50;1.40;;;14.80;97.30;;;;;;5033580;28;20469;-90
2022/09/11 01:36:37;;;;;;;1.83;1.73;;;14.80;97.30;;;;;;5033761;28;21123;-90
2022/09/11 01:39:04;;;;;;;1.97;1.90;;;14.80;97.30;;;;;;5033467;28;20469;-89
2022/09/11 01:41:43;;;;;;;1.97;1.37;;;14.80;97.30;;;;;;5032733;28;20441;-90
2022/09/11 01:44:26;;;;;;;2.03;1.43;;;14.70;97.30;;;;;;5038738;28;20442;-90
2022/09/11 01:46:53;;;;;;;1.03;0.97;;;14.70;97.30;;;;;;5034105;28;20422;-90
2022/09/11 01:49:56;;;;;;;2.37;1.90;;;14.70;97.30;;;;;;5032011;28;20426;-88
2022/09/11 01:52:29;;;;;;;2.33;1.90;;;14.70;97.30;;;;;;5027448;28;20471;-89
2022/09/11 01:55:08;;;;;;;1.60;1.47;;;14.70;97.30;;;;;;5026195;28;20441;-90
2022/09/11 01:57:42;;;;;;;1.67;1.57;;;14.70;97.30;;;;;;5033999;28;20466;-89
2022/09/11 02:00:12;;;;;;;1.77;1.60;;;14.70;97.30;;;;;;5041370;28;20417;-89
2022/09/11 02:02:43;;;;;;;1.83;1.23;;;14.60;97.30;;;;;;5035818;28;20443;-88
2022/09/11 02:05:14;;;;;;;1.77;1.73;;;14.60;97.30;;;;;;5025891;28;20476;-89
2022/09/11 02:07:57;;;;;;;2.00;1.90;;;14.60;97.30;;;;;;5037398;28;20430;-89
2022/09/11 02:10:44;;;;;;;1.73;1.40;;;14.60;97.30;;;;;;5026006;28;20427;-89
2022/09/11 02:13:18;;;;;;;1.80;1.73;;;14.60;97.30;;;;;;5024745;28;20850;-90
2022/09/11 02:15:50;;;;;;;2.50;1.73;;;14.60;97.30;;;;;;5054728;28;20460;-90
2022/09/11 02:18:25;;;;;;;1.63;1.43;;;14.60;97.30;;;;;;5037035;28;20437;-90
2022/09/11 02:20:52;;;;;;;2.10;2.00;;;14.60;97.30;;;;;;5036912;28;20459;-90
2022/09/11 02:23:18;;;;;;;2.80;1.57;;;14.60;97.30;;;;;;5036914;28;20972;-90
2022/09/11 02:25:44;;;;;;;3.17;1.97;;;14.60;97.30;;;;;;5036589;28;20429;-90
2022/09/11 02:28:11;;;;;;;1.90;1.80;;;14.60;97.30;;;;;;5036612;28;20426;-90
2022/09/11 02:30:38;;;;;;;1.90;1.67;;;14.60;97.30;;;;;;5043611;28;21029;-89
2022/09/11 02:33:03;;;;;;;1.43;1.40;;;14.50;97.30;;;;;;5034219;28;20566;-90
2022/09/11 02:35:42;;;;;;;2.13;1.60;;;14.50;97.30;;;;;;5041913;28;20521;-90
2022/09/11 02:38:24;;;;;;;2.20;2.00;;;14.50;97.30;;;;;;5036777;28;20187;-90
2022/09/11 02:40:49;;;;;;;1.83;1.80;;;14.50;97.30;;;;;;5016952;28;20430;-90
2022/09/11 02:43:56;;;;;;;5.07;2.53;;;14.50;97.30;;;;;;5047999;28;20529;-90
2022/09/11 02:46:48;;;;;;;1.40;1.30;;;14.50;97.30;;;;;;5036261;28;20196;-89
2022/09/11 02:49:38;;;;;;;2.10;1.87;;;14.40;97.30;;;;;;5027408;28;20450;-89
2022/09/11 02:52:19;;;;;;;3.43;1.70;;;14.40;97.30;;;;;;5036200;28;20447;-89
2022/09/11 02:54:52;;;;;;;1.50;1.40;;;14.40;97.30;;;;;;5032915;28;20915;-90
2022/09/11 02:57:51;;;;;;;2.50;2.13;;;14.40;97.30;;;;;;5022778;28;21011;-90
2022/09/11 03:00:20;;;;;;;1.20;1.10;;;14.40;97.30;;;;;;5048578;28;20786;-90
2022/09/11 03:02:53;;;;;;;1.37;1.30;;;14.30;97.30;;;;;;5028896;28;21019;-90
2022/09/11 03:05:20;;;;;;;1.80;1.70;;;14.30;97.30;;;;;;5016522;28;20827;-90
2022/09/11 03:07:53;;;;;;;2.03;1.83;;;14.30;97.30;;;;;;5028735;28;20560;-90
2022/09/11 03:10:19;;;;;;;1.30;1.30;;;14.20;97.30;;;;;;5036275;28;20797;-90
2022/09/11 03:12:47;;;;;;;1.80;1.53;;;14.20;97.30;;;;;;5035716;28;20453;-88
2022/09/11 03:15:15;;;;;;;42.43;2.73;;;14.20;97.30;;;;;;5035834;28;20901;-89
2022/09/11 03:17:41;;;;;;;1.50;1.40;;;14.20;97.30;;;;;;5047109;28;20450;-89
2022/09/11 03:20:09;;;;;;;1.90;1.53;;;14.20;97.30;;;;;;5035452;28;20419;-89
2022/09/11 03:22:38;;;;;;;1.97;1.87;;;14.20;97.30;;;;;;5035361;28;20504;-90
2022/09/11 03:25:04;;;;;;;1.10;1.00;;;14.20;97.30;;;;;;5043341;28;20407;-90
2022/09/11 03:27:30;;;;;;;2.40;1.70;;;14.10;97.30;;;;;;5032240;28;20476;-90
2022/09/11 03:29:55;;;;;;;3.03;2.30;;;14.10;97.30;;;;;;5035620;28;20418;-89
2022/09/11 03:32:21;;;;;;;1.63;1.53;;;14.10;97.30;;;;;;5035209;28;20782;-90
2022/09/11 03:34:47;;;;;;;2.53;2.00;;;14.00;97.30;;;;;;5054618;28;20552;-90
2022/09/11 03:37:14;;;;;;;1.53;1.20;;;14.00;97.30;;;;;;5051399;28;20490;-90
2022/09/11 03:39:40;;;;;;;3.43;2.00;;;14.00;97.30;;;;;;5052179;28;20991;-89
2022/09/11 03:42:05;;;;;;;1.73;1.63;;;14.00;97.30;;;;;;5031999;28;20443;-90
2022/09/11 03:44:31;;;;;;;5.23;2.30;;;14.00;97.30;;;;;;5025725;28;20223;-90
2022/09/11 03:46:56;;;;;;;1.97;1.57;;;13.90;97.30;;;;;;5034763;28;20633;-90
2022/09/11 03:49:22;;;;;;;1.80;1.60;;;13.90;97.30;;;;;;5033647;28;20180;-90
2022/09/11 03:51:47;;;;;;;2.47;1.90;;;13.90;97.30;;;;;;5032722;28;20658;-90
2022/09/11 03:54:14;;;;;;;3.90;1.93;;;13.90;97.30;;;;;;5034668;28;20249;-90
2022/09/11 03:56:41;;;;;;;3.43;2.13;;;13.90;97.30;;;;;;5033316;28;20206;-89
2022/09/11 03:59:07;;;;;;;3.63;1.80;;;13.90;97.30;;;;;;5047338;28;20414;-90
2022/09/11 04:01:34;;;;;;;2.33;1.70;;;13.80;97.30;;;;;;5041313;28;20978;-90
2022/09/11 04:04:00;;;;;;;2.70;2.20;;;13.80;97.30;;;;;;5051028;28;20197;-90
2022/09/11 04:06:26;;;;;;;2.90;2.70;;;13.80;97.30;;;;;;5032737;28;20419;-89
2022/09/11 04:08:51;;;;;;;2.00;1.77;;;13.80;97.30;;;;;;5033089;28;20515;-90
2022/09/11 04:11:17;;;;;;;2.43;2.07;;;13.80;97.30;;;;;;5049863;28;20214;-88
2022/09/11 04:13:42;;;;;;;3.37;1.77;;;13.80;97.30;;;;;;5032351;28;20200;-90
2022/09/11 04:16:14;;;;;;;2.60;1.60;;;13.80;97.30;;;;;;5032576;28;20257;-90
2022/09/11 04:18:41;;;;;;;2.70;2.13;;;13.80;97.30;;;;;;5034922;28;20264;-90
2022/09/11 04:21:09;;;;;;;2.83;2.63;;;13.80;97.30;;;;;;5032536;28;20418;-88
2022/09/11 04:23:35;;;;;;;6.50;3.17;;;13.80;97.30;;;;;;5032336;28;20518;-90
2022/09/11 04:26:01;;;;;;;2.30;1.43;;;13.80;97.30;;;;;;5049018;28;20751;-90
2022/09/11 04:28:28;;;;;;;2.30;1.40;;;13.80;97.30;;;;;;5049960;28;20430;-88
2022/09/11 04:30:56;;;;;;;1.37;1.30;;;13.80;97.30;;;;;;5050726;28;20259;-90
2022/09/11 04:33:23;;;;;;;3.37;2.13;;;13.80;97.30;;;;;;5028698;28;20478;-90
2022/09/11 04:35:49;;;;;;;2.40;2.23;;;13.90;97.30;;;;;;5028871;28;20430;-90
2022/09/11 04:38:14;;;;;;;2.03;1.90;;;13.90;97.30;;;;;;5045843;28;20419;-90
2022/09/11 04:40:40;;;;;;;2.37;2.17;;;13.90;97.30;;;;;;5029250;28;20180;-89
2022/09/11 04:43:05;;;;;;;4.40;2.37;;;13.90;97.30;;;;;;5033308;28;20636;-89
2022/09/11 04:45:32;;;;;;;7.77;2.60;;;13.90;97.30;;;;;;5044800;28;20203;-89
2022/09/11 04:47:58;;;;;;;3.90;2.80;;;13.90;97.30;;;;;;5045332;28;20176;-89
2022/09/11 04:50:23;;;;;;;2.40;1.90;;;14.00;97.30;;;;;;5029247;28;20458;-90
2022/09/11 04:52:49;;;;;;;3.80;2.67;;;14.00;97.30;;;;;;5028815;28;20475;-90
2022/09/11 04:55:14;;;;;;;6.37;2.10;;;14.00;97.30;;;;;;5045526;28;20176;-89
2022/09/11 04:57:40;;;;;;;3.67;3.47;;;14.00;97.30;;;;;;5031728;28;20728;-90
2022/09/11 05:00:06;;;;;;;5.10;2.93;;;14.00;97.30;;;;;;5019930;28;20185;-90
2022/09/11 05:02:32;;;;;;;4.90;2.87;;;14.10;97.30;;;;;;5024917;28;20203;-90
2022/09/11 05:04:57;;;;;;;6.67;3.10;;;14.10;97.30;;;;;;5029120;28;20423;-90
2022/09/11 05:07:24;;;;;;;5.23;3.13;;;14.10;97.30;;;;;;5041440;28;20196;-89
2022/09/11 05:09:53;;;;;;;8.00;3.63;;;14.20;97.30;;;;;;5030231;28;20180;-91
2022/09/11 05:12:19;;;;;;;3.63;2.77;;;14.20;97.30;;;;;;5041626;28;20443;-90
2022/09/11 05:14:45;;;;;;;2.57;2.37;;;14.20;97.30;;;;;;5028987;28;20427;-90
2022/09/11 05:17:12;;;;;;;2.97;2.27;;;14.20;97.30;;;;;;5039666;28;20483;-89
2022/09/11 05:19:38;;;;;;;7.57;4.20;;;14.30;97.30;;;;;;5025299;28;20187;-90
2022/09/11 05:22:04;;;;;;;2.37;2.00;;;14.30;97.30;;;;;;5028668;28;20841;-90
2022/09/11 05:24:30;;;;;;;53.30;3.97;;;14.30;97.30;;;;;;5029588;28;20427;-89
2022/09/11 05:26:57;;;;;;;2.23;2.03;;;14.30;97.30;;;;;;5035371;28;20795;-90
2022/09/11 05:29:23;;;;;;;6.43;4.20;;;14.30;97.30;;;;;;5049757;28;20214;-89
2022/09/11 05:31:49;;;;;;;3.37;3.17;;;14.30;97.30;;;;;;5055296;28;20449;-90
2022/09/11 05:34:17;;;;;;;2.53;2.33;;;14.30;97.30;;;;;;5057207;28;20454;-88
2022/09/11 05:36:42;;;;;;;3.13;2.03;;;14.30;97.30;;;;;;5037334;28;20302;-90
2022/09/11 05:39:09;;;;;;;4.60;3.97;;;14.30;97.30;;;;;;5062285;28;20395;-88
2022/09/11 05:41:42;;;;;;;2.80;2.60;;;14.30;97.30;;;;;;5056311;28;20185;-88
2022/09/11 05:44:10;;;;;;;10.17;4.83;;;14.30;97.30;;;;;;5057376;28;20467;-91
2022/09/11 05:46:39;;;;;;;9.13;3.43;;;14.30;97.30;;;;;;5041265;28;20553;-90
2022/09/11 05:49:11;;;;;;;5.07;2.87;;;14.30;97.30;;;;;;5031303;28;20431;-91
2022/09/11 05:51:40;;;;;;;4.37;2.90;;;14.40;97.30;;;;;;5034659;28;20426;-90
2022/09/11 05:54:09;;;;;;;5.33;3.60;;;14.40;97.30;;;;;;5034236;28;20439;-91
2022/09/11 05:56:40;;;;;;;5.87;2.83;;;14.40;97.30;;;;;;5050669;28;20524;-91
2022/09/11 05:59:15;;;;;;;7.50;4.40;;;14.40;97.30;;;;;;5050582;28;20423;-91
2022/09/11 06:01:41;;;;;;;5.00;3.93;;;14.40;97.30;;;;;;5032929;28;20423;-91
2022/09/11 06:04:11;;;;;;;2.60;2.40;;;14.40;97.30;;;;;;5037916;28;20418;-92
2022/09/11 06:06:39;;;;;;;8.10;3.17;;;14.50;97.30;;;;;;5035000;28;20434;-92
2022/09/11 06:09:12;;;;;;;6.67;4.13;;;14.50;97.30;;;;;;5048329;28;20473;-92
2022/09/11 06:11:41;;;;;;;11.37;4.37;;;14.50;97.30;;;;;;5036583;28;20431;-92
2022/09/11 06:14:09;;;;;;;8.07;3.67;;;14.50;97.30;;;;;;5048212;28;20969;-91
2022/09/11 06:16:41;;;;;;;7.90;6.63;;;14.60;97.30;;;;;;5049849;28;20493;-92
2022/09/11 06:19:10;;;;;;;10.57;4.57;;;14.50;97.30;;;;;;5055649;28;20446;-92
2022/09/11 06:22:00;;;;;;;9.63;4.40;;;14.50;97.30;;;;;;5061082;28;20411;-92
2022/09/11 06:24:28;;;;;;;5.40;3.90;;;14.50;97.30;;;;;;5047262;28;20420;-91
2022/09/11 06:26:59;;;;;;;6.30;3.50;;;14.50;97.30;;;;;;5031817;28;20404;-90
2022/09/11 06:29:33;;;;;;;9.80;4.90;;;14.50;97.30;;;;;;5046204;28;21284;-89
2022/09/11 06:32:02;;;;;;;10.70;5.47;;;14.50;97.30;;;;;;5032047;28;20419;-91
2022/09/11 06:34:30;;;;;;;10.20;5.33;;;14.50;97.30;;;;;;5031784;28;20825;-92
2022/09/11 06:36:59;;;;;;;6.83;5.17;;;14.50;97.30;;;;;;5042476;28;20449;-91
2022/09/11 06:39:33;;;;;;;12.93;4.33;;;14.50;97.30;;;;;;5034287;28;20825;-92
2022/09/11 06:41:59;;;;;;;19.30;5.47;;;14.50;97.30;;;;;;5035122;28;20423;-90
2022/09/11 06:44:25;;;;;;;14.60;7.03;;;14.50;97.30;;;;;;5030673;28;20408;-90
2022/09/11 06:46:51;;;;;;;16.00;6.10;;;14.50;97.30;;;;;;5031240;28;20208;-90
2022/09/11 06:49:16;;;;;;;16.83;7.80;;;14.60;97.30;;;;;;5032934;28;20933;-90
2022/09/11 06:51:42;;;;;;;17.80;7.23;;;14.60;97.30;;;;;;5036119;28;20183;-90
2022/09/11 06:54:07;;;;;;;9.97;5.47;;;14.60;97.30;;;;;;5030527;28;20246;-91
2022/09/11 06:56:33;;;;;;;8.63;4.87;;;14.60;97.30;;;;;;5030887;28;20598;-90
2022/09/11 06:58:58;;;;;;;7.87;5.17;;;14.50;97.30;;;;;;5045105;28;20181;-88
2022/09/11 07:01:25;;;;;;;7.03;3.70;;;14.50;97.30;;;;;;5049905;28;20188;-88
2022/09/11 07:03:53;;;;;;;7.03;3.73;;;14.50;97.30;;;;;;5042863;28;20204;-88
2022/09/11 07:06:24;;;;;;;6.50;3.47;;;14.50;97.30;;;;;;5042993;28;20945;-88
2022/09/11 07:08:51;;;;;;;4.80;3.47;;;14.50;97.30;;;;;;5030222;28;20456;-88
2022/09/11 07:11:18;;;;;;;11.70;4.77;;;14.50;97.30;;;;;;5036748;28;20439;-88
2022/09/11 07:13:46;;;;;;;4.70;2.60;;;14.50;97.30;;;;;;5029542;28;20497;-86
2022/09/11 07:16:13;;;;;;;4.63;3.40;;;14.50;97.30;;;;;;5029448;28;20467;-89
2022/09/11 07:18:43;;;;;;;23.27;7.70;;;14.50;97.30;;;;;;5028942;28;20514;-89
2022/09/11 07:21:12;;;;;;;7.80;6.50;;;14.50;97.30;;;;;;5027735;28;20450;-91
2022/09/11 07:23:38;;;;;;;14.00;5.67;;;14.50;97.30;;;;;;5024417;28;20443;-89
2022/09/11 07:26:06;;;;;;;8.93;3.40;;;14.60;97.30;;;;;;5028592;28;20497;-89
2022/09/11 07:28:32;;;;;;;4.93;3.87;;;14.60;97.30;;;;;;5024605;28;20426;-89
2022/09/11 07:31:12;;;;;;;11.83;5.07;;;14.70;97.30;;;;;;5030827;28;20475;-89
2022/09/11 07:33:41;;;;;;;6.03;3.50;;;14.70;97.30;;;;;;5043634;28;20468;-89
2022/09/11 07:36:19;;;;;;;11.80;6.13;;;14.80;97.30;;;;;;5032868;28;20422;-91
2022/09/11 07:38:46;;;;;;;9.00;4.40;;;14.80;97.30;;;;;;5032682;28;20418;-91
2022/09/11 07:41:15;;;;;;;6.40;3.10;;;14.80;97.30;;;;;;5032687;28;20418;-91
2022/09/11 07:43:44;;;;;;;9.10;5.20;;;14.80;97.30;;;;;;5031922;28;20784;-89
2022/09/11 07:46:10;;;;;;;5.53;3.37;;;14.90;97.30;;;;;;5050736;28;20426;-91
2022/09/11 07:48:36;;;;;;;6.97;4.60;;;14.90;97.30;;;;;;5032245;28;20429;-90
2022/09/11 07:51:04;;;;;;;6.37;4.40;;;14.90;97.30;;;;;;5046869;28;20180;-90
2022/09/11 07:53:37;;;;;;;7.90;3.57;;;15.00;97.30;;;;;;5031598;28;20254;-90
2022/09/11 07:56:05;;;;;;;22.77;5.83;;;15.00;97.30;;;;;;5032192;28;20427;-91
2022/09/11 07:58:37;;;;;;;4.00;3.80;;;15.00;97.30;;;;;;5032442;28;20406;-89
2022/09/11 08:01:04;;;;;;;15.70;5.50;;;15.00;97.30;;;;;;5049619;28;20424;-89
2022/09/11 08:03:30;;;;;;;8.00;4.57;;;15.00;97.30;;;;;;5032023;28;20493;-90
2022/09/11 08:05:57;;;;;;;10.00;6.10;;;15.10;97.30;;;;;;5031919;28;20513;-89
2022/09/11 08:08:24;;;;;;;12.03;5.83;;;15.10;97.30;;;;;;5032108;28;20427;-90
2022/09/11 08:10:50;;;;;;;3.90;3.43;;;15.10;97.30;;;;;;5055753;28;20428;-90
2022/09/11 08:13:17;;;;;;;11.40;3.23;;;15.10;97.30;;;;;;5039450;28;20434;-91
2022/09/11 08:15:47;;;;;;;4.23;2.97;;;15.20;97.30;;;;;;5033439;28;20215;-91
2022/09/11 08:18:12;;;;;;;6.10;1.90;;;15.20;97.30;;;;;;5048504;28;20836;-90
2022/09/11 08:20:40;;;;;;;8.90;4.27;;;15.20;97.30;;;;;;5050605;28;20413;-90
2022/09/11 08:23:06;;;;;;;11.77;4.73;;;15.20;97.30;;;;;;5027619;28;20223;-89
2022/09/11 08:25:37;;;;;;;5.37;4.13;;;15.30;97.30;;;;;;5031607;28;20450;-90
2022/09/11 08:28:07;;;;;;;4.50;3.00;;;15.30;97.30;;;;;;5033010;28;20184;-90
2022/09/11 08:30:37;;;;;;;6.10;4.57;;;15.30;97.30;;;;;;5035412;28;20434;-90
2022/09/11 08:33:04;;;;;;;7.73;3.20;;;15.30;97.30;;;;;;5043082;28;20841;-90
2022/09/11 08:35:29;;;;;;;5.93;3.37;;;15.30;97.30;;;;;;5030846;28;20941;-90
2022/09/11 08:37:57;;;;;;;4.73;2.90;;;15.30;97.30;;;;;;5031884;28;20466;-90
2022/09/11 08:40:22;;;;;;;5.87;4.40;;;15.30;97.30;;;;;;5031298;28;20243;-89
2022/09/11 08:42:51;;;;;;;6.63;3.60;;;15.30;97.30;;;;;;5030726;28;20577;-89
2022/09/11 08:45:19;;;;;;;9.27;3.80;;;15.40;97.30;;;;;;5030625;28;20200;-90
2022/09/11 08:47:53;;;;;;;5.30;2.40;;;15.40;97.30;;;;;;5031055;28;20775;-90
2022/09/11 08:50:42;;;;;;;13.17;3.97;;;15.40;97.30;;;;;;5031508;28;20407;-91
2022/09/11 08:53:14;;;;;;;4.73;4.07;;;15.50;97.30;;;;;;5028472;28;20439;-91
2022/09/11 08:55:51;;;;;;;8.63;3.90;;;15.50;97.30;;;;;;5043809;28;20968;-92
2022/09/11 08:58:52;;;;;;;7.23;4.20;;;15.50;97.30;;;;;;5030349;28;20510;-90
2022/09/11 09:01:38;;;;;;;8.40;4.47;;;15.50;97.30;;;;;;5028094;28;20455;-90
2022/09/11 09:04:22;;;;;;;4.20;2.90;;;15.50;97.30;;;;;;5021313;28;20448;-90
2022/09/11 09:07:20;;;;;;;4.20;3.00;;;15.50;97.30;;;;;;5029971;28;20415;-90
2022/09/11 09:10:07;;;;;;;4.23;2.30;;;15.50;97.30;;;;;;5032161;28;20446;-90
2022/09/11 09:12:48;;;;;;;4.33;2.43;;;15.50;97.30;;;;;;5035161;28;20447;-90
2022/09/11 09:15:29;;;;;;;3.93;2.53;;;15.60;97.30;;;;;;5034652;28;20453;-91
2022/09/11 09:18:11;;;;;;;7.37;4.00;;;15.60;97.30;;;;;;5044051;28;20528;-92
2022/09/11 09:20:45;;;;;;;5.03;3.00;;;15.60;97.30;;;;;;5034124;28;20477;-92
2022/09/11 09:23:13;;;;;;;2.97;2.50;;;15.60;97.30;;;;;;5050514;28;20449;-91
2022/09/11 09:25:41;;;;;;;6.80;2.23;;;15.70;97.30;;;;;;5032911;28;20423;-91
2022/09/11 09:28:38;;;;;;;2.67;2.13;;;15.60;97.30;;;;;;5034022;28;20427;-90
2022/09/11 09:31:19;;;;;;;6.93;3.27;;;15.60;97.30;;;;;;5032987;28;20423;-91
2022/09/11 09:33:51;;;;;;;6.53;3.50;;;15.60;97.30;;;;;;5033259;28;20557;-91
2022/09/11 09:36:32;;;;;;;4.70;3.57;;;15.70;97.30;;;;;;5032966;28;21044;-93
2022/09/11 09:39:00;;;;;;;4.83;2.33;;;15.70;97.30;;;;;;5035721;28;20445;-92
2022/09/11 09:41:48;;;;;;;4.13;3.20;;;15.70;97.30;;;;;;5039583;23;20487;-85
2022/09/11 09:44:42;;;;;;;3.80;2.53;;;15.60;97.30;;;;;;5030009;28;20681;-85
2022/09/11 09:47:13;;;;;;;2.60;1.63;;;15.60;97.30;;;;;;5040742;28;20955;-84
2022/09/11 09:49:38;;;;;;;4.47;3.07;;;15.60;97.30;;;;;;5014424;28;20425;-85
2022/09/11 09:52:18;;;;;;;3.57;2.47;;;15.60;97.30;;;;;;5049118;28;20442;-86
2022/09/11 09:55:01;;;;;;;4.00;3.03;;;15.60;97.30;;;;;;5035381;28;20477;-85
2022/09/11 09:57:30;;;;;;;3.80;3.23;;;15.60;97.30;;;;;;5034691;28;20507;-85
2022/09/11 10:00:09;;;;;;;10.30;3.07;;;15.60;97.30;;;;;;5051507;28;20464;-86
2022/09/11 10:02:53;;;;;;;3.53;2.73;;;15.60;97.30;;;;;;5027341;28;20410;-84
2022/09/11 10:05:30;;;;;;;6.20;4.00;;;15.60;97.30;;;;;;5022810;28;20421;-85
2022/09/11 10:08:02;;;;;;;6.77;3.37;;;15.60;97.30;;;;;;5034045;28;20422;-85
2022/09/11 10:10:35;;;;;;;5.20;4.40;;;15.60;97.30;;;;;;5027515;28;20446;-85
2022/09/11 10:13:23;;;;;;;3.07;2.10;;;15.60;97.30;;;;;;5034554;28;20907;-85
2022/09/11 10:15:51;;;;;;;8.73;4.07;;;15.70;97.30;;;;;;5050758;28;20422;-85
2022/09/11 10:18:41;;;;;;;6.80;4.30;;;15.70;97.30;;;;;;5033587;28;20478;-86
2022/09/11 10:21:21;;;;;;;3.17;2.00;;;15.70;97.30;;;;;;5052302;28;20956;-85
2022/09/11 10:23:51;;;;;;;11.37;3.80;;;15.70;97.30;;;;;;5052539;28;20414;-85
2022/09/11 10:26:21;;;;;;;4.53;3.07;;;15.80;97.30;;;;;;5034039;28;20508;-85
2022/09/11 10:28:47;;;;;;;6.60;3.37;;;15.80;97.30;;;;;;5038665;28;20655;-85
2022/09/11 10:31:15;;;;;;;6.87;4.83;;;15.80;97.30;;;;;;5033526;28;20438;-85
2022/09/11 10:33:50;;;;;;;6.00;3.90;;;15.80;97.30;;;;;;5034451;28;20940;-85
2022/09/11 10:36:21;;;;;;;47.93;3.33;;;15.80;97.30;;;;;;5033765;28;20518;-85
2022/09/11 10:38:47;;;;;;;11.30;5.37;;;15.80;97.30;;;;;;5052302;28;20414;-85
2022/09/11 10:41:12;;;;;;;4.97;2.93;;;15.80;97.30;;;;;;5051502;28;20867;-84
2022/09/11 10:43:46;;;;;;;5.30;4.03;;;15.80;97.30;;;;;;5033847;28;20330;-86
2022/09/11 10:46:54;;;;;;;6.63;5.43;;;15.80;97.30;;;;;;5033978;28;20168;-85
2022/09/11 10:49:21;;;;;;;5.23;4.20;;;15.80;97.30;;;;;;5015866;28;20422;-85
2022/09/11 10:52:18;;;;;;;7.07;4.77;;;15.80;97.30;;;;;;5033748;28;20434;-85
2022/09/11 10:55:04;;;;;;;6.00;2.97;;;15.80;97.30;;;;;;5027225;28;20414;-85
2022/09/11 10:57:52;;;;;;;5.70;3.30;;;15.80;97.30;;;;;;5032484;28;20455;-85
2022/09/11 11:00:22;;;;;;;10.10;5.70;;;15.80;97.30;;;;;;5050924;28;20445;-85
2022/09/11 11:02:57;;;;;;;6.37;4.30;;;15.80;97.30;;;;;;5032735;28;20999;-84
2022/09/11 11:05:26;;;;;;;4.10;3.40;;;15.70;97.30;;;;;;5046244;28;20429;-84
2022/09/11 11:07:55;;;;;;;3.50;2.30;;;15.70;97.30;;;;;;5033325;28;20422;-84
2022/09/11 11:10:51;;;;;;;6.97;3.00;;;15.70;97.30;;;;;;5050807;28;20445;-84
2022/09/11 11:13:36;;;;;;;5.57;3.20;;;15.70;97.30;;;;;;5049883;28;20418;-85
2022/09/11 11:16:28;;;;;;;2.73;2.40;;;15.60;97.30;;;;;;5042201;28;20491;-85
2022/09/11 11:19:03;;;;;;;13.87;4.60;;;15.60;97.30;;;;;;5050050;28;20784;-85
2022/09/11 11:21:53;;;;;;;3.23;2.93;;;15.60;97.30;;;;;;5033133;28;20441;-85
2022/09/11 11:24:56;;;;;;;5.17;3.00;;;15.60;97.30;;;;;;5033156;28;20413;-85
2022/09/11 11:27:52;;;;;;;5.40;3.60;;;15.50;97.30;;;;;;5050615;28;20796;-85
2022/09/11 11:30:21;;;;;;;5.43;3.27;;;15.50;97.30;;;;;;5029505;28;20842;-84
2022/09/11 11:33:16;;;;;;;5.03;4.53;;;15.50;97.30;;;;;;5032872;28;20410;-85
2022/09/11 11:36:01;;;;;;;5.17;3.20;;;15.50;97.30;;;;;;5038598;28;20791;-85
2022/09/11 11:38:40;;;;;;;5.20;3.70;;;15.50;97.30;;;;;;5042977;28;20426;-84
2022/09/11 11:41:29;;;;;;;8.70;3.30;;;15.60;97.30;;;;;;5044227;28;21047;-85
2022/09/11 11:43:57;;;;;;;4.70;3.43;;;15.60;97.30;;;;;;5050799;28;20509;-85
2022/09/11 11:46:30;;;;;;;11.10;5.37;;;15.60;97.30;;;;;;5034560;28;20434;-84
2022/09/11 11:49:00;;;;;;;9.93;4.77;;;15.60;97.30;;;;;;5049767;28;20870;-85
2022/09/11 11:51:28;;;;;;;4.20;3.53;;;15.60;97.30;;;;;;5031862;28;21011;-84
2022/09/11 11:54:05;;;;;;;5.67;4.77;;;15.60;97.30;;;;;;5032788;28;20524;-85
2022/09/11 11:56:47;;;;;;;11.93;5.27;;;15.60;97.30;;;;;;5020343;28;20449;-85
2022/09/11 11:59:31;;;;;;;8.53;4.10;;;15.70;97.30;;;;;;5049813;28;20429;-85
2022/09/11 12:02:11;;;;;;;8.33;4.73;;;15.70;97.30;;;;;;5039007;28;20975;-85
2022/09/11 12:04:53;;;;;;;4.70;2.63;;;15.70;97.30;;;;;;5024332;28;20423;-85
2022/09/11 12:07:24;;;;;;;11.73;6.60;;;15.80;97.30;;;;;;5032103;28;20875;-85
2022/09/11 12:09:52;;;;;;;6.30;4.70;;;15.80;97.30;;;;;;5032542;28;20456;-85
2022/09/11 12:12:19;;;;;;;7.73;4.70;;;15.90;97.30;;;;;;5046374;28;20442;-84
2022/09/11 12:14:54;;;;;;;7.50;4.60;;;15.90;97.30;;;;;;5050119;28;20927;-85
2022/09/11 12:17:27;;;;;;;6.07;3.73;;;16.00;97.30;;;;;;5031555;28;20457;-85
2022/09/11 12:20:14;;;;;;;16.43;5.10;;;16.10;97.30;;;;;;5032570;28;20426;-85
2022/09/11 12:22:48;;;;;;;9.33;5.63;;;16.20;97.30;;;;;;5035861;28;20418;-85
2022/09/11 12:25:19;;;;;;;8.60;5.30;;;16.30;97.30;;;;;;5049721;28;20976;-85
2022/09/11 12:27:45;;;;;;;7.13;4.60;;;16.30;97.30;;;;;;5031924;28;20421;-86
2022/09/11 12:30:17;;;;;;;6.43;2.93;;;16.40;97.30;;;;;;5048155;28;20509;-85
2022/09/11 12:32:43;;;;;;;10.30;4.63;;;16.50;97.30;;;;;;5049824;28;20180;-84
2022/09/11 12:35:18;;;;;;;5.13;3.03;;;16.60;97.30;;;;;;5032605;28;20415;-85
2022/09/11 12:37:49;;;;;;;5.47;3.00;;;16.80;97.30;;;;;;5031886;28;20548;-85
2022/09/11 12:40:31;;;;;;;4.17;2.73;;;17.00;97.30;;;;;;5037558;28;20804;-84
2022/09/11 12:43:15;;;;;;;12.50;5.03;;;17.20;97.30;;;;;;5027911;28;20864;-85
2022/09/11 12:45:42;;;;;;;6.70;4.23;;;17.40;97.30;;;;;;5031920;28;20407;-84
2022/09/11 12:48:14;;;;;;;7.93;4.47;;;17.70;97.30;;;;;;5031235;28;20936;-85
2022/09/11 12:50:56;;;;;;;14.13;3.70;;;17.90;97.30;;;;;;5039799;28;20473;-85
2022/09/11 12:53:30;;;;;;;5.27;3.90;;;18.20;97.30;;;;;;5037837;28;20441;-85
2022/09/11 12:55:58;;;;;;;8.33;2.70;;;18.40;97.30;;;;;;5031821;28;20422;-85
2022/09/11 12:58:32;;;;;;;3.77;3.00;;;18.60;97.30;;;;;;5031541;28;20460;-85
2022/09/11 13:01:12;;;;;;;7.87;5.63;;;18.80;97.30;;;;;;5031002;28;20434;-85
2022/09/11 13:04:05;;;;;;;7.50;3.53;;;19.00;97.30;;;;;;5048082;28;20407;-85
2022/09/11 13:06:51;;;;;;;19.83;5.00;;;19.30;97.30;;;;;;5035775;28;20425;-85
2022/09/11 13:09:21;;;;;;;9.10;3.27;;;19.40;97.30;;;;;;5036021;28;20414;-86
2022/09/11 13:11:51;;;;;;;8.33;2.93;;;19.50;97.30;;;;;;5032166;28;21022;-85